Time;durP1;ratioP1;P1;durP2;ratioP2;P2;SDS_P1;SDS_P2;PMS_P1;PMS_P2;Temp;Humidity;BMP_temperature;BMP_pressure;BME280_temperature;BME280_humidity;BME280_pressure;Samples;Min_cycle;Max_cycle;Signal;HPM_P1;HPM_P2
2023/04/29 00:01:36;;;;;;;14.07;6.47;;;17.40;99.90;;;;;;5034295;28;20428;-58
2023/04/29 00:04:04;;;;;;;12.65;7.00;;;17.40;99.90;;;;;;5052512;28;20035;-57
2023/04/29 00:06:31;;;;;;;12.93;5.80;;;17.50;99.90;;;;;;5032639;28;20025;-60
2023/04/29 00:08:59;;;;;;;12.75;6.38;;;17.50;99.90;;;;;;5050780;28;20371;-58
2023/04/29 00:11:26;;;;;;;16.65;6.50;;;17.40;99.90;;;;;;5050407;28;20017;-59
2023/04/29 00:13:53;;;;;;;15.63;7.40;;;17.50;99.90;;;;;;5045462;28;20494;-58
2023/04/29 00:16:21;;;;;;;13.02;6.43;;;17.50;99.90;;;;;;5050617;28;20086;-59
2023/04/29 00:18:49;;;;;;;13.98;6.72;;;17.50;99.90;;;;;;5047033;28;20167;-58
2023/04/29 00:21:16;;;;;;;18.02;7.32;;;17.50;99.90;;;;;;5049154;28;20175;-59
2023/04/29 00:23:44;;;;;;;11.15;6.68;;;17.40;99.90;;;;;;5036920;28;20482;-58
2023/04/29 00:26:12;;;;;;;14.43;7.45;;;17.40;99.90;;;;;;5033184;28;20037;-59
2023/04/29 00:28:40;;;;;;;12.90;7.15;;;17.50;99.90;;;;;;5045734;28;20155;-59
2023/04/29 00:31:07;;;;;;;10.55;7.28;;;17.40;99.90;;;;;;5046537;28;20238;-59
2023/04/29 00:33:35;;;;;;;15.23;7.30;;;17.40;99.90;;;;;;5020069;28;20021;-58
2023/04/29 00:36:03;;;;;;;14.38;7.55;;;17.30;99.90;;;;;;5049264;28;20037;-58
2023/04/29 00:38:30;;;;;;;12.48;7.50;;;17.30;99.90;;;;;;5048290;28;20021;-58
2023/04/29 00:40:57;;;;;;;12.32;7.45;;;17.30;99.90;;;;;;5049952;28;20018;-58
2023/04/29 00:43:25;;;;;;;11.52;6.15;;;17.30;99.90;;;;;;5047513;28;20021;-58
2023/04/29 00:45:53;;;;;;;11.68;7.75;;;17.30;99.90;;;;;;5031450;28;20424;-58
2023/04/29 00:48:20;;;;;;;13.43;8.88;;;17.30;99.90;;;;;;5038553;28;20060;-62
2023/04/29 00:50:49;;;;;;;12.73;7.63;;;17.20;99.90;;;;;;5044549;28;20033;-61
2023/04/29 00:53:17;;;;;;;13.23;7.53;;;17.30;99.90;;;;;;5046628;28;20017;-62
2023/04/29 00:55:47;;;;;;;10.10;7.43;;;17.30;99.90;;;;;;5043745;28;20056;-61
2023/04/29 00:58:14;;;;;;;15.13;8.63;;;17.30;99.90;;;;;;5037550;28;20029;-58
2023/04/29 01:00:42;;;;;;;15.82;8.05;;;17.30;99.90;;;;;;5044226;28;20029;-58
2023/04/29 01:03:10;;;;;;;13.35;7.70;;;17.30;99.90;;;;;;5021511;28;20032;-58
2023/04/29 01:05:38;;;;;;;16.08;7.97;;;17.30;99.90;;;;;;5047604;28;20539;-58
2023/04/29 01:08:42;;;;;;;14.18;7.95;;;17.30;99.90;;;;;;5048823;28;20044;-59
2023/04/29 01:11:12;;;;;;;12.57;7.90;;;17.30;99.90;;;;;;5041967;28;20032;-59
2023/04/29 01:13:54;;;;;;;14.85;9.23;;;17.30;99.90;;;;;;5047362;28;20032;-59
2023/04/29 01:16:30;;;;;;;12.90;8.82;;;17.30;99.90;;;;;;5035596;28;20033;-59
2023/04/29 01:19:12;;;;;;;13.38;7.85;;;17.30;99.90;;;;;;5030833;28;20025;-61
2023/04/29 01:21:49;;;;;;;14.48;6.72;;;17.40;99.90;;;;;;5044045;28;20028;-58
2023/04/29 01:24:17;;;;;;;8.82;5.50;;;17.40;99.90;;;;;;5039841;28;20017;-59
2023/04/29 01:26:53;;;;;;;10.38;6.32;;;17.40;99.90;;;;;;5021603;28;20512;-58
2023/04/29 01:29:30;;;;;;;11.68;6.15;;;17.30;99.90;;;;;;5029117;28;20036;-59
2023/04/29 01:32:16;;;;;;;17.55;7.82;;;17.40;99.90;;;;;;5038201;28;20502;-58
2023/04/29 01:34:48;;;;;;;14.43;7.22;;;17.40;99.90;;;;;;5035140;28;20032;-57
2023/04/29 01:38:01;;;;;;;9.25;6.97;;;17.40;99.90;;;;;;5023596;28;20096;-58
2023/04/29 01:41:03;;;;;;;12.18;8.23;;;17.40;99.90;;;;;;5034094;28;20033;-58
2023/04/29 01:43:33;;;;;;;12.38;8.25;;;17.40;99.90;;;;;;5032351;28;20036;-56
2023/04/29 01:46:03;;;;;;;15.02;8.75;;;17.50;99.90;;;;;;5045193;28;20037;-57
2023/04/29 01:48:31;;;;;;;15.68;9.88;;;17.50;99.90;;;;;;5046892;28;20036;-51
2023/04/29 01:51:00;;;;;;;14.63;9.05;;;17.50;99.90;;;;;;5042365;28;20056;-57
2023/04/29 01:53:27;;;;;;;17.75;10.05;;;17.60;99.90;;;;;;5045867;28;20167;-57
2023/04/29 01:55:55;;;;;;;13.57;9.10;;;17.60;99.90;;;;;;5024030;28;20541;-56
2023/04/29 01:58:22;;;;;;;13.63;9.48;;;17.60;99.90;;;;;;5037118;28;20053;-57
2023/04/29 02:00:50;;;;;;;15.77;10.57;;;17.60;99.90;;;;;;5043591;28;20393;-57
2023/04/29 02:03:17;;;;;;;14.40;9.48;;;17.50;99.90;;;;;;5048331;28;20021;-55
2023/04/29 02:05:45;;;;;;;14.52;9.18;;;17.50;99.90;;;;;;5040772;28;20029;-58
2023/04/29 02:08:12;;;;;;;17.27;10.05;;;17.40;99.90;;;;;;5040328;28;20105;-57
2023/04/29 02:10:39;;;;;;;16.33;11.23;;;17.40;99.90;;;;;;5028068;28;20067;-58
2023/04/29 02:13:07;;;;;;;15.15;10.23;;;17.40;99.90;;;;;;5031489;28;20045;-58
2023/04/29 02:15:34;;;;;;;14.40;8.70;;;17.40;99.90;;;;;;5049158;28;20371;-57
2023/04/29 02:18:02;;;;;;;13.38;8.32;;;17.40;99.90;;;;;;5030858;28;20025;-57
2023/04/29 02:20:29;;;;;;;13.80;8.07;;;17.40;99.90;;;;;;5029797;28;20033;-55
2023/04/29 02:22:57;;;;;;;13.55;8.18;;;17.40;99.90;;;;;;5029658;28;20072;-57
2023/04/29 02:25:24;;;;;;;14.98;8.73;;;17.40;99.90;;;;;;5039955;28;20030;-56
2023/04/29 02:27:51;;;;;;;21.05;9.05;;;17.40;99.90;;;;;;5020157;28;20025;-56
2023/04/29 02:30:19;;;;;;;14.40;9.52;;;17.30;99.90;;;;;;5023876;28;20114;-57
2023/04/29 02:32:46;;;;;;;13.45;9.75;;;17.40;99.90;;;;;;5039085;28;20042;-55
2023/04/29 02:35:14;;;;;;;13.73;9.25;;;17.40;99.90;;;;;;5039298;28;20083;-55
2023/04/29 02:37:41;;;;;;;10.95;8.27;;;17.40;99.90;;;;;;5038153;28;20021;-57
2023/04/29 02:40:10;;;;;;;14.32;8.27;;;17.40;99.90;;;;;;5039998;28;20028;-58
2023/04/29 02:42:37;;;;;;;12.40;7.90;;;17.50;99.90;;;;;;5039319;28;20060;-54
2023/04/29 02:45:05;;;;;;;14.13;6.78;;;17.50;99.90;;;;;;5020275;28;20113;-56
2023/04/29 02:47:33;;;;;;;18.05;7.22;;;17.50;99.90;;;;;;5040767;28;20124;-54
2023/04/29 02:50:00;;;;;;;14.13;6.72;;;17.50;99.90;;;;;;5038162;28;20034;-56
2023/04/29 02:52:28;;;;;;;14.25;7.93;;;17.60;99.90;;;;;;5039381;28;20022;-56
2023/04/29 02:54:55;;;;;;;14.63;7.03;;;17.70;99.90;;;;;;5039205;28;20033;-56
2023/04/29 02:57:22;;;;;;;14.18;7.78;;;17.60;99.90;;;;;;5020287;28;20028;-54
2023/04/29 02:59:50;;;;;;;13.65;7.65;;;17.60;99.90;;;;;;5043456;28;20083;-53
2023/04/29 03:02:17;;;;;;;10.20;6.18;;;17.60;99.90;;;;;;5045703;28;20104;-56
2023/04/29 03:04:45;;;;;;;13.38;7.05;;;17.50;99.90;;;;;;5021951;28;20113;-58
2023/04/29 03:07:33;;;;;;;11.38;6.90;;;17.50;99.90;;;;;;5047186;28;20033;-56
2023/04/29 03:10:00;;;;;;;10.45;7.13;;;17.60;99.90;;;;;;5018986;28;20493;-57
2023/04/29 03:12:28;;;;;;;8.68;6.32;;;17.60;99.90;;;;;;5047876;28;20037;-57
2023/04/29 03:14:55;;;;;;;9.98;6.78;;;17.50;99.90;;;;;;5044242;28;20020;-55
2023/04/29 03:17:23;;;;;;;12.10;6.00;;;17.50;99.90;;;;;;5049892;28;20622;-62
2023/04/29 03:19:52;;;;;;;9.50;5.55;;;17.40;99.90;;;;;;5032805;28;20021;-61
2023/04/29 03:22:19;;;;;;;11.65;5.70;;;17.40;99.90;;;;;;5038013;28;20071;-58
2023/04/29 03:24:47;;;;;;;12.75;6.55;;;17.40;99.90;;;;;;5027679;28;20040;-58
2023/04/29 03:27:14;;;;;;;9.55;5.30;;;17.50;99.90;;;;;;5020668;28;20532;-58
2023/04/29 03:29:42;;;;;;;10.40;4.95;;;17.40;99.90;;;;;;5045201;28;20025;-59
2023/04/29 03:32:09;;;;;;;10.32;6.00;;;17.40;99.90;;;;;;5026841;28;20406;-59
2023/04/29 03:34:37;;;;;;;10.40;6.95;;;17.40;99.90;;;;;;5017217;28;20032;-61
2023/04/29 03:37:05;;;;;;;11.15;6.53;;;17.50;99.90;;;;;;5043444;28;20040;-61
2023/04/29 03:39:32;;;;;;;15.23;6.25;;;17.60;99.90;;;;;;5040344;28;20049;-61
2023/04/29 03:42:00;;;;;;;10.75;5.63;;;17.60;99.90;;;;;;5033956;28;20044;-60
2023/04/29 03:44:28;;;;;;;11.20;5.95;;;17.60;99.90;;;;;;5046180;28;20032;-60
2023/04/29 03:46:55;;;;;;;9.70;5.53;;;17.50;99.90;;;;;;5049487;28;20399;-61
2023/04/29 03:49:23;;;;;;;10.98;6.25;;;17.50;99.90;;;;;;5041933;28;20029;-62
2023/04/29 03:51:50;;;;;;;10.40;5.82;;;17.60;99.90;;;;;;5015691;28;20060;-61
2023/04/29 03:54:18;;;;;;;14.68;5.60;;;17.60;99.90;;;;;;5024947;28;20033;-60
2023/04/29 03:56:45;;;;;;;8.60;5.93;;;17.70;99.90;;;;;;5037655;28;20025;-59
2023/04/29 03:59:13;;;;;;;8.05;5.57;;;17.70;99.90;;;;;;5033274;28;20030;-60
2023/04/29 04:01:40;;;;;;;6.45;4.20;;;17.70;99.90;;;;;;5037167;28;20021;-60
2023/04/29 04:04:08;;;;;;;5.53;4.05;;;17.80;99.90;;;;;;5048774;28;20017;-59
2023/04/29 04:06:36;;;;;;;9.90;5.15;;;17.70;99.90;;;;;;5050371;28;20029;-59
2023/04/29 04:09:03;;;;;;;8.93;4.35;;;17.70;99.90;;;;;;5048861;28;20032;-61
2023/04/29 04:11:30;;;;;;;6.72;4.28;;;17.70;99.90;;;;;;5049923;28;20170;-60
2023/04/29 04:13:58;;;;;;;6.35;3.53;;;17.70;99.90;;;;;;5031850;28;20028;-59
2023/04/29 04:16:25;;;;;;;7.85;3.63;;;17.70;99.90;;;;;;5031685;28;20131;-60
2023/04/29 04:18:53;;;;;;;8.00;4.05;;;17.70;99.90;;;;;;5017222;28;21528;-60
2023/04/29 04:21:20;;;;;;;7.43;4.25;;;17.60;99.90;;;;;;5042522;28;20025;-60
2023/04/29 04:23:48;;;;;;;8.70;4.25;;;17.50;99.90;;;;;;5041008;28;20032;-61
2023/04/29 04:26:15;;;;;;;8.20;3.85;;;17.50;99.90;;;;;;5029010;28;20056;-60
2023/04/29 04:28:43;;;;;;;9.63;4.72;;;17.40;99.90;;;;;;5019097;28;20026;-60
2023/04/29 04:31:10;;;;;;;7.60;5.03;;;17.40;99.90;;;;;;5041092;28;20021;-62
2023/04/29 04:33:38;;;;;;;9.98;5.28;;;17.40;99.90;;;;;;5050906;28;20017;-60
2023/04/29 04:36:06;;;;;;;9.98;6.05;;;17.40;99.90;;;;;;5050095;28;20485;-61
2023/04/29 04:38:34;;;;;;;7.15;5.47;;;17.40;99.90;;;;;;5049074;28;20477;-60
2023/04/29 04:41:01;;;;;;;8.25;5.50;;;17.40;99.90;;;;;;5048591;28;20020;-61
2023/04/29 04:43:28;;;;;;;8.20;5.63;;;17.40;99.90;;;;;;5049784;28;20031;-60
2023/04/29 04:45:56;;;;;;;11.73;5.63;;;17.40;99.90;;;;;;5050286;28;20028;-60
2023/04/29 04:48:23;;;;;;;8.23;5.00;;;17.40;99.90;;;;;;5048569;28;20041;-59
2023/04/29 04:50:51;;;;;;;10.55;6.43;;;17.40;99.90;;;;;;5041013;28;20024;-62
2023/04/29 04:53:18;;;;;;;8.88;6.03;;;17.40;99.90;;;;;;5047042;28;20032;-59
2023/04/29 04:55:46;;;;;;;10.68;5.90;;;17.40;99.90;;;;;;5023246;28;20049;-61
2023/04/29 04:58:13;;;;;;;14.02;7.07;;;17.30;99.90;;;;;;5022134;28;20536;-60
2023/04/29 05:00:44;;;;;;;10.85;5.47;;;17.30;99.90;;;;;;5040711;28;20061;-60
2023/04/29 05:03:12;;;;;;;8.00;5.72;;;17.20;99.90;;;;;;5041594;28;20592;-60
2023/04/29 05:05:39;;;;;;;9.52;6.07;;;17.20;99.90;;;;;;5050061;28;20041;-60
2023/04/29 05:08:07;;;;;;;11.60;6.45;;;17.20;99.90;;;;;;5034495;28;20029;-60
2023/04/29 05:10:37;;;;;;;12.18;7.15;;;17.10;99.90;;;;;;5033098;28;20053;-61
2023/04/29 05:13:04;;;;;;;9.13;5.45;;;17.00;99.90;;;;;;5031151;28;20033;-59
2023/04/29 05:15:31;;;;;;;11.80;6.20;;;17.00;99.90;;;;;;5049774;28;20044;-59
2023/04/29 05:17:59;;;;;;;8.38;5.72;;;17.00;99.90;;;;;;5039036;28;20033;-59
2023/04/29 05:20:27;;;;;;;10.40;6.53;;;17.00;99.90;;;;;;5034120;28;20029;-59
2023/04/29 05:22:54;;;;;;;8.48;5.90;;;17.10;99.90;;;;;;5030596;28;20072;-59
2023/04/29 05:25:21;;;;;;;8.00;5.78;;;17.10;99.90;;;;;;5029406;28;20528;-61
2023/04/29 05:27:49;;;;;;;7.70;4.88;;;17.00;99.90;;;;;;5050594;28;20501;-59
2023/04/29 05:30:17;;;;;;;8.63;4.70;;;16.90;99.90;;;;;;5032367;28;20029;-59
2023/04/29 05:32:45;;;;;;;6.97;4.20;;;16.90;99.90;;;;;;5027724;28;20501;-59
2023/04/29 05:35:12;;;;;;;9.60;4.63;;;16.90;99.90;;;;;;5015624;28;20132;-60
2023/04/29 05:37:40;;;;;;;9.55;4.22;;;16.80;99.90;;;;;;5030962;28;20103;-59
2023/04/29 05:40:09;;;;;;;6.97;3.65;;;16.80;99.90;;;;;;5039258;28;20511;-60
2023/04/29 05:42:36;;;;;;;6.50;3.65;;;16.80;99.90;;;;;;5050631;28;20029;-60
2023/04/29 05:45:04;;;;;;;8.48;4.15;;;16.70;99.90;;;;;;5015665;28;20029;-59
2023/04/29 05:47:32;;;;;;;7.18;4.10;;;16.70;99.90;;;;;;5030033;28;20128;-60
2023/04/29 05:50:00;;;;;;;7.70;3.95;;;16.70;99.90;;;;;;5030251;28;20037;-60
2023/04/29 05:52:27;;;;;;;7.22;3.83;;;16.70;99.90;;;;;;5030041;28;20021;-60
2023/04/29 05:54:55;;;;;;;6.18;3.45;;;16.60;99.90;;;;;;5030028;28;20056;-59
2023/04/29 05:57:22;;;;;;;4.18;1.95;;;16.60;99.90;;;;;;5040499;28;20115;-59
2023/04/29 05:59:50;;;;;;;6.18;1.30;;;16.50;99.90;;;;;;5048715;28;20028;-60
2023/04/29 06:02:17;;;;;;;2.92;1.67;;;16.40;99.90;;;;;;5028235;28;20040;-60
2023/04/29 06:04:46;;;;;;;3.58;1.30;;;16.30;99.90;;;;;;5029095;28;20054;-58
2023/04/29 06:07:14;;;;;;;1.80;1.15;;;16.20;99.90;;;;;;5013975;28;20034;-59
2023/04/29 06:09:42;;;;;;;3.10;2.10;;;16.20;99.90;;;;;;5027426;28;20033;-59
2023/04/29 06:12:10;;;;;;;2.63;1.77;;;16.20;99.90;;;;;;5036291;28;20028;-59
2023/04/29 06:14:38;;;;;;;2.50;1.80;;;16.20;99.90;;;;;;5031725;28;20025;-58
2023/04/29 06:17:05;;;;;;;3.28;1.77;;;16.10;99.90;;;;;;5039250;28;20067;-58
2023/04/29 06:19:33;;;;;;;2.30;2.05;;;16.10;99.90;;;;;;5045014;28;20029;-60
2023/04/29 06:22:00;;;;;;;4.90;1.48;;;16.00;99.90;;;;;;5029200;28;20032;-59
2023/04/29 06:24:27;;;;;;;4.05;1.30;;;16.00;99.90;;;;;;5032000;28;20421;-58
2023/04/29 06:26:55;;;;;;;1.98;1.13;;;15.90;99.90;;;;;;5042963;28;20033;-58
2023/04/29 06:29:22;;;;;;;2.35;1.08;;;15.90;99.90;;;;;;5035217;28;20029;-58
2023/04/29 06:31:50;;;;;;;4.32;1.67;;;15.80;99.90;;;;;;5030604;28;20094;-59
2023/04/29 06:34:18;;;;;;;2.63;1.60;;;15.80;99.90;;;;;;5030541;28;20057;-60
2023/04/29 06:36:46;;;;;;;2.25;1.20;;;15.80;99.90;;;;;;5029483;28;20490;-59
2023/04/29 06:39:13;;;;;;;1.63;0.90;;;15.80;99.90;;;;;;5029434;28;20025;-61
2023/04/29 06:41:41;;;;;;;2.28;1.15;;;15.80;99.90;;;;;;5029940;28;20026;-65
2023/04/29 06:44:09;;;;;;;3.47;1.20;;;15.70;99.90;;;;;;5037954;28;20013;-60
2023/04/29 06:46:38;;;;;;;2.63;0.98;;;15.70;99.90;;;;;;5027872;28;20052;-60
2023/04/29 06:49:06;;;;;;;2.97;1.30;;;15.70;99.90;;;;;;5028698;28;20497;-57
2023/04/29 06:51:34;;;;;;;2.40;1.40;;;15.70;99.90;;;;;;5021559;28;20033;-56
2023/04/29 06:54:02;;;;;;;3.22;1.40;;;15.70;99.90;;;;;;5028202;28;20184;-55
2023/04/29 06:56:29;;;;;;;2.42;1.30;;;15.60;99.90;;;;;;5011993;28;20473;-56
2023/04/29 06:58:56;;;;;;;4.18;1.30;;;15.60;99.90;;;;;;5011551;28;20035;-56
2023/04/29 07:01:24;;;;;;;4.13;1.65;;;15.60;99.90;;;;;;5029333;28;20112;-52
2023/04/29 07:03:51;;;;;;;5.07;1.55;;;15.60;99.90;;;;;;5029047;28;20577;-56
2023/04/29 07:06:22;;;;;;;4.07;1.33;;;15.60;99.90;;;;;;5019182;28;20116;-59
2023/04/29 07:08:51;;;;;;;2.33;1.13;;;15.50;99.90;;;;;;5008189;28;20029;-59
2023/04/29 07:11:18;;;;;;;3.00;1.30;;;15.50;99.90;;;;;;5014413;28;20120;-60
2023/04/29 07:13:45;;;;;;;2.58;1.38;;;15.50;99.90;;;;;;5019870;28;20022;-65
2023/04/29 07:16:19;;;;;;;3.63;1.73;;;15.50;99.90;;;;;;5006905;28;20426;-60
2023/04/29 07:18:47;;;;;;;4.55;1.73;;;15.50;99.90;;;;;;5020847;28;20025;-60
2023/04/29 07:21:15;;;;;;;4.10;2.00;;;15.50;99.90;;;;;;5012469;28;20651;-60
2023/04/29 07:23:43;;;;;;;2.67;1.70;;;15.50;99.90;;;;;;5018974;28;20037;-59
2023/04/29 07:26:12;;;;;;;11.00;3.58;;;15.50;99.90;;;;;;5027090;28;20049;-60
2023/04/29 07:28:40;;;;;;;3.65;1.80;;;15.50;99.90;;;;;;5023240;28;20112;-60
2023/04/29 07:31:07;;;;;;;3.75;1.98;;;15.50;99.90;;;;;;5015525;28;20044;-59
2023/04/29 07:33:35;;;;;;;4.10;2.17;;;15.50;99.90;;;;;;5018886;28;20025;-62
2023/04/29 07:36:03;;;;;;;4.20;2.05;;;15.60;99.90;;;;;;5014389;28;20033;-62
2023/04/29 07:38:30;;;;;;;4.38;2.33;;;15.50;99.90;;;;;;5026525;28;20022;-62
2023/04/29 07:40:58;;;;;;;3.60;2.45;;;15.50;99.90;;;;;;5015915;28;20506;-61
2023/04/29 07:43:25;;;;;;;5.22;2.70;;;15.60;99.90;;;;;;5008038;28;20025;-61
2023/04/29 07:45:53;;;;;;;7.20;3.45;;;15.60;99.90;;;;;;5010153;28;20037;-61
2023/04/29 07:48:20;;;;;;;5.75;3.80;;;15.60;99.90;;;;;;5028346;28;20508;-61
2023/04/29 07:50:48;;;;;;;11.02;3.72;;;15.60;99.90;;;;;;5030147;28;20025;-62
2023/04/29 07:53:16;;;;;;;6.72;4.28;;;15.60;99.90;;;;;;5023320;28;20554;-61
2023/04/29 07:55:45;;;;;;;10.10;4.97;;;15.60;99.90;;;;;;5049219;28;20076;-63
2023/04/29 07:58:12;;;;;;;7.25;4.60;;;15.70;99.90;;;;;;5050390;28;20226;-62
2023/04/29 08:00:39;;;;;;;9.73;5.40;;;15.70;99.90;;;;;;5042887;28;20033;-65
2023/04/29 08:03:07;;;;;;;6.03;4.45;;;15.70;99.90;;;;;;5047686;28;20036;-64
2023/04/29 08:05:35;;;;;;;18.83;5.32;;;15.70;99.90;;;;;;5048021;28;20436;-62
2023/04/29 08:08:02;;;;;;;7.32;5.07;;;15.70;99.90;;;;;;5040040;28;20033;-61
2023/04/29 08:10:30;;;;;;;15.07;6.45;;;15.70;99.90;;;;;;5039416;28;20025;-61
2023/04/29 08:12:57;;;;;;;10.07;5.57;;;15.70;99.90;;;;;;5035583;28;20025;-61
2023/04/29 08:15:25;;;;;;;8.25;6.25;;;15.70;99.90;;;;;;5046615;28;20128;-61
2023/04/29 08:17:53;;;;;;;11.63;6.18;;;15.70;99.90;;;;;;5049243;28;20068;-62
2023/04/29 08:20:20;;;;;;;11.55;6.43;;;15.70;99.90;;;;;;5036868;28;20040;-60
2023/04/29 08:22:48;;;;;;;13.07;6.20;;;15.70;99.90;;;;;;5029386;28;20034;-60
2023/04/29 08:25:15;;;;;;;10.70;5.15;;;15.70;99.90;;;;;;5030129;28;20036;-60
2023/04/29 08:27:44;;;;;;;11.95;5.93;;;15.80;99.90;;;;;;5032983;28;20485;-61
2023/04/29 08:30:12;;;;;;;7.45;4.90;;;15.70;99.90;;;;;;5049473;28;20273;-61
2023/04/29 08:32:39;;;;;;;8.27;3.97;;;15.80;99.90;;;;;;5035646;28;20037;-60
2023/04/29 08:35:07;;;;;;;8.63;4.20;;;15.80;99.90;;;;;;5020229;28;20025;-60
2023/04/29 08:37:35;;;;;;;7.90;3.72;;;15.80;99.90;;;;;;5027177;28;20036;-61
2023/04/29 08:40:03;;;;;;;8.27;4.07;;;15.80;99.90;;;;;;5040498;28;20116;-61
2023/04/29 08:42:36;;;;;;;6.07;3.60;;;15.80;99.90;;;;;;5035299;28;20026;-60
2023/04/29 08:45:05;;;;;;;7.13;3.83;;;15.80;99.90;;;;;;5034691;28;20091;-61
2023/04/29 08:47:33;;;;;;;8.13;3.80;;;15.80;99.90;;;;;;5031879;28;20049;-61
2023/04/29 08:50:05;;;;;;;11.85;4.15;;;15.80;99.90;;;;;;5035310;28;20041;-60
2023/04/29 08:52:34;;;;;;;7.28;4.47;;;15.80;99.90;;;;;;5033385;28;20535;-61
2023/04/29 08:55:04;;;;;;;8.65;4.22;;;15.80;99.90;;;;;;5035093;28;20116;-61
2023/04/29 08:57:39;;;;;;;7.45;4.53;;;15.80;99.90;;;;;;5048393;28;20386;-61
2023/04/29 09:00:11;;;;;;;5.97;4.50;;;15.80;99.90;;;;;;5028246;28;20036;-60
2023/04/29 09:02:50;;;;;;;7.25;4.82;;;15.80;99.90;;;;;;5011460;28;20029;-60
2023/04/29 09:05:17;;;;;;;11.18;5.22;;;15.90;99.90;;;;;;5010826;28;20086;-60
2023/04/29 09:07:46;;;;;;;7.60;5.30;;;15.90;99.90;;;;;;5010812;28;20038;-60
2023/04/29 09:10:15;;;;;;;11.95;5.15;;;15.80;99.90;;;;;;5036292;28;20025;-62
2023/04/29 09:12:43;;;;;;;7.15;4.57;;;15.80;99.90;;;;;;5048341;28;20047;-60
2023/04/29 09:15:11;;;;;;;6.05;4.53;;;15.80;99.90;;;;;;5048524;28;20867;-61
2023/04/29 09:17:48;;;;;;;8.13;3.40;;;15.80;99.90;;;;;;5047986;28;20385;-59
2023/04/29 09:20:21;;;;;;;7.15;4.45;;;15.80;99.90;;;;;;5037007;28;20029;-61
2023/04/29 09:23:03;;;;;;;6.78;3.58;;;15.70;99.90;;;;;;5013017;28;20577;-60
2023/04/29 09:25:30;;;;;;;7.40;3.80;;;15.70;99.90;;;;;;5032868;28;20402;-60
2023/04/29 09:27:58;;;;;;;10.95;3.65;;;15.80;99.90;;;;;;5041640;28;20536;-61
2023/04/29 09:30:26;;;;;;;16.60;4.00;;;15.70;99.90;;;;;;5039363;28;20029;-61
2023/04/29 09:33:06;;;;;;;7.72;3.95;;;15.70;99.90;;;;;;5041360;28;20028;-61
2023/04/29 09:35:34;;;;;;;14.02;4.75;;;15.70;99.90;;;;;;5035716;28;20040;-60
2023/04/29 09:38:13;;;;;;;9.65;4.40;;;15.60;99.90;;;;;;5027853;28;20027;-60
2023/04/29 09:40:43;;;;;;;7.75;3.30;;;15.60;99.90;;;;;;5029376;28;20033;-60
2023/04/29 09:43:18;;;;;;;8.40;3.33;;;15.60;99.90;;;;;;5029392;28;20116;-60
2023/04/29 09:45:47;;;;;;;7.93;4.13;;;15.60;99.90;;;;;;5046881;28;20029;-61
2023/04/29 09:48:16;;;;;;;9.57;5.50;;;15.70;99.90;;;;;;5009499;28;20057;-65
2023/04/29 09:50:45;;;;;;;11.48;5.10;;;15.60;99.90;;;;;;5011318;28;20515;-61
2023/04/29 09:53:29;;;;;;;11.60;4.50;;;15.60;99.90;;;;;;5027917;28;20506;-61
2023/04/29 09:56:04;;;;;;;7.35;4.07;;;15.60;99.90;;;;;;5047301;28;20375;-60
2023/04/29 09:58:36;;;;;;;7.03;3.60;;;15.70;99.90;;;;;;5047470;28;20029;-61
2023/04/29 10:01:04;;;;;;;7.47;3.80;;;15.60;99.90;;;;;;5029370;28;20402;-59
2023/04/29 10:03:36;;;;;;;8.80;4.68;;;15.70;99.90;;;;;;5028917;28;20037;-59
2023/04/29 10:06:07;;;;;;;9.07;4.18;;;15.60;99.90;;;;;;5009414;28;20583;-58
2023/04/29 10:08:35;;;;;;;10.23;4.22;;;15.50;99.90;;;;;;5036213;28;20029;-59
2023/04/29 10:11:04;;;;;;;9.27;3.72;;;15.60;99.90;;;;;;5047379;28;20021;-59
2023/04/29 10:13:37;;;;;;;7.40;4.68;;;15.50;99.90;;;;;;5041846;28;20103;-61
2023/04/29 10:16:25;;;;;;;6.72;4.45;;;15.50;99.90;;;;;;5047234;28;20041;-61
2023/04/29 10:18:59;;;;;;;7.65;4.25;;;15.50;99.90;;;;;;5047395;28;20044;-61
2023/04/29 10:21:30;;;;;;;4.40;3.03;;;15.50;99.90;;;;;;5031430;28;20516;-61
2023/04/29 10:24:01;;;;;;;7.95;3.42;;;15.50;99.90;;;;;;5011522;28;20035;-61
2023/04/29 10:26:30;;;;;;;5.65;3.17;;;15.50;99.90;;;;;;5038788;28;20100;-61
2023/04/29 10:28:59;;;;;;;5.40;2.75;;;15.50;99.90;;;;;;5038437;28;20071;-61
2023/04/29 10:31:28;;;;;;;10.63;3.28;;;15.60;99.90;;;;;;5028952;28;20116;-61
2023/04/29 10:33:57;;;;;;;10.38;2.90;;;15.50;99.90;;;;;;5027702;28;20394;-61
2023/04/29 10:36:33;;;;;;;3.90;2.38;;;15.50;99.90;;;;;;5044181;28;20108;-60
2023/04/29 10:39:04;;;;;;;6.28;2.60;;;15.50;99.90;;;;;;5040735;28;20046;-60
2023/04/29 10:41:45;;;;;;;9.40;2.72;;;15.50;99.90;;;;;;5047065;28;20070;-60
2023/04/29 10:44:13;;;;;;;8.18;2.85;;;15.50;99.90;;;;;;5038942;28;20067;-61
2023/04/29 10:46:41;;;;;;;4.35;2.70;;;15.40;99.90;;;;;;5020299;28;20136;-62
2023/04/29 10:49:11;;;;;;;4.00;2.92;;;15.40;99.90;;;;;;5018480;28;20036;-60
2023/04/29 10:51:45;;;;;;;5.97;2.78;;;15.40;99.90;;;;;;5013711;28;20406;-60
2023/04/29 10:54:24;;;;;;;3.95;1.75;;;15.40;99.90;;;;;;5020039;28;20080;-60
2023/04/29 10:56:53;;;;;;;9.32;2.17;;;15.30;99.90;;;;;;5026903;28;20554;-60
2023/04/29 10:59:43;;;;;;;3.83;2.10;;;15.30;99.90;;;;;;5018229;28;20483;-60
2023/04/29 11:02:11;;;;;;;2.55;1.58;;;15.30;99.90;;;;;;5008818;28;20034;-60
2023/04/29 11:05:08;;;;;;;3.58;1.45;;;15.20;99.90;;;;;;5009465;28;20025;-60
2023/04/29 11:07:35;;;;;;;2.50;1.38;;;15.30;99.90;;;;;;5023381;28;20057;-61
2023/04/29 11:10:03;;;;;;;2.60;0.95;;;15.20;99.90;;;;;;5014861;28;20041;-60
2023/04/29 11:12:31;;;;;;;2.13;0.80;;;15.20;99.90;;;;;;5006606;28;20046;-60
2023/04/29 11:15:07;;;;;;;2.35;0.85;;;15.20;99.90;;;;;;5016165;28;20078;-60
2023/04/29 11:17:38;;;;;;;3.10;1.17;;;15.20;99.90;;;;;;5025458;28;20042;-60
2023/04/29 11:20:13;;;;;;;2.45;1.00;;;15.20;99.90;;;;;;5027454;28;20113;-61
2023/04/29 11:22:41;;;;;;;3.88;0.93;;;15.20;99.90;;;;;;5009931;28;20029;-60
2023/04/29 11:25:10;;;;;;;2.92;1.02;;;15.20;99.90;;;;;;5025955;28;20033;-60
2023/04/29 11:27:40;;;;;;;1.25;0.80;;;15.10;99.90;;;;;;5030247;28;20032;-60
2023/04/29 11:30:08;;;;;;;0.88;0.57;;;15.20;99.90;;;;;;5027998;28;20414;-60
2023/04/29 11:32:40;;;;;;;2.30;0.82;;;15.10;99.90;;;;;;5030504;28;20543;-62
2023/04/29 11:35:12;;;;;;;1.98;0.68;;;15.10;99.90;;;;;;5030490;28;20025;-60
2023/04/29 11:37:41;;;;;;;2.55;1.20;;;15.10;99.90;;;;;;5029465;28;20128;-60
2023/04/29 11:40:10;;;;;;;3.05;0.98;;;15.10;99.90;;;;;;5017225;28;20026;-61
2023/04/29 11:42:48;;;;;;;2.40;0.80;;;15.10;99.90;;;;;;5010432;28;20029;-62
2023/04/29 11:45:18;;;;;;;4.72;0.82;;;15.00;99.90;;;;;;5013770;28;20022;-64
2023/04/29 11:47:48;;;;;;;0.68;0.40;;;14.90;99.90;;;;;;5020472;28;20045;-61
2023/04/29 11:50:18;;;;;;;1.35;0.57;;;14.80;99.90;;;;;;5043777;28;20032;-62
2023/04/29 11:52:49;;;;;;;3.38;0.52;;;14.70;99.90;;;;;;5019413;28;20025;-61
2023/04/29 11:55:18;;;;;;;2.60;0.63;;;14.70;99.90;;;;;;5022344;28;20068;-61
2023/04/29 11:57:48;;;;;;;2.22;0.88;;;14.70;99.90;;;;;;5029870;28;20105;-60
2023/04/29 12:00:15;;;;;;;2.45;0.65;;;14.60;99.90;;;;;;5028110;28;20021;-60
2023/04/29 12:02:47;;;;;;;2.35;0.80;;;14.60;99.90;;;;;;5030274;28;20565;-60
2023/04/29 12:05:15;;;;;;;4.65;0.63;;;14.70;99.90;;;;;;5023476;28;20029;-60
2023/04/29 12:07:43;;;;;;;2.47;0.60;;;14.60;99.90;;;;;;5010425;28;20037;-60
2023/04/29 12:10:12;;;;;;;2.22;0.70;;;14.60;99.90;;;;;;5009221;28;20025;-60
2023/04/29 12:12:42;;;;;;;2.17;0.80;;;14.60;99.90;;;;;;5019707;28;20455;-60
2023/04/29 12:15:10;;;;;;;4.90;0.93;;;14.60;99.90;;;;;;5027568;28;20095;-61
2023/04/29 12:17:42;;;;;;;4.47;1.33;;;14.60;99.90;;;;;;5029571;28;20563;-60
2023/04/29 12:20:11;;;;;;;4.43;0.80;;;14.50;99.90;;;;;;5029460;28;20029;-60
2023/04/29 12:22:38;;;;;;;1.58;0.57;;;14.60;99.90;;;;;;5029473;28;20076;-60
2023/04/29 12:25:07;;;;;;;2.92;0.70;;;14.60;99.90;;;;;;5026658;28;20104;-61
2023/04/29 12:27:35;;;;;;;1.90;0.90;;;14.60;99.90;;;;;;5029220;28;20037;-60
2023/04/29 12:30:10;;;;;;;3.10;0.70;;;14.60;99.90;;;;;;5027844;28;20029;-61
2023/04/29 12:32:37;;;;;;;4.63;0.77;;;14.50;99.90;;;;;;5029093;28;20461;-60
2023/04/29 12:35:06;;;;;;;4.60;0.60;;;14.50;99.90;;;;;;5028221;28;20025;-60
2023/04/29 12:37:34;;;;;;;2.67;1.30;;;14.40;99.90;;;;;;5009201;28;20413;-60
2023/04/29 12:40:01;;;;;;;1.48;0.70;;;14.40;99.90;;;;;;5009420;28;20026;-59
2023/04/29 12:42:35;;;;;;;1.42;0.65;;;14.40;99.90;;;;;;5009480;28;20026;-60
2023/04/29 12:45:02;;;;;;;1.00;0.57;;;14.40;99.90;;;;;;5021817;28;20029;-59
2023/04/29 12:47:36;;;;;;;1.85;0.65;;;14.30;99.90;;;;;;5030599;28;20052;-59
2023/04/29 12:50:04;;;;;;;3.30;0.77;;;14.30;99.90;;;;;;5031973;28;20409;-59
2023/04/29 12:52:31;;;;;;;0.40;0.35;;;14.30;99.90;;;;;;5039312;28;20281;-59
2023/04/29 12:54:59;;;;;;;1.75;0.32;;;14.30;99.90;;;;;;5020467;28;20036;-61